Aviation Digital Data Service (ADDS)

Output produced by METARs form (2205 UTC 29 September 2016)
found at http://aviationweather.gov/adds/metars/
 
KHPN 292134Z 2922/3018 09011KT P6SM SCT035 OVC120 
     TEMPO 2922/2923 BKN035 
     FM292300 08011KT P6SM OVC035 
     FM300200 07015G22KT P6SM OVC025 
     FM300600 04016G23KT P6SM OVC015 
     FM301100 07017G24KT P6SM -RA OVC015 
     FM301600 07018G26KT 3SM RA OVC010 AMD NOT SKED